Time;durP1;ratioP1;P1;durP2;ratioP2;P2;SDS_P1;SDS_P2;PMS_P1;PMS_P2;Temp;Humidity;BMP_temperature;BMP_pressure;BME280_temperature;BME280_humidity;BME280_pressure;Samples;Min_cycle;Max_cycle;Signal;HPM_P1;HPM_P2
2022/01/01 00:02:25;;;;;;;5.33;2.87;;;;;;;10.73;85.67;97244.56;5034025;28;20707;-73
2022/01/01 00:04:51;;;;;;;5.17;3.33;;;;;;;10.58;85.55;97240.00;5034739;28;20232;-74
2022/01/01 00:07:18;;;;;;;7.53;2.53;;;;;;;10.65;85.80;97239.22;5033865;28;20212;-73
2022/01/01 00:09:45;;;;;;;6.67;3.20;;;;;;;10.63;85.86;97238.56;5033575;28;20692;-73
2022/01/01 00:12:13;;;;;;;4.00;2.30;;;;;;;10.95;85.00;97242.22;5035207;28;20916;-73
2022/01/01 00:14:40;;;;;;;7.90;3.00;;;;;;;10.29;87.87;97234.13;5034249;28;20224;-73
2022/01/01 00:17:08;;;;;;;7.07;3.10;;;;;;;10.61;87.31;97242.31;5035065;28;20201;-73
2022/01/01 00:19:35;;;;;;;6.37;2.47;;;;;;;10.40;86.85;97242.63;5036055;28;20318;-72
2022/01/01 00:22:03;;;;;;;8.40;3.70;;;;;;;10.52;87.44;97243.22;5036780;28;20208;-74
2022/01/01 00:24:30;;;;;;;8.40;3.83;;;;;;;10.50;86.76;97247.81;5035204;28;20727;-74
2022/01/01 00:26:56;;;;;;;7.23;3.57;;;;;;;10.34;87.37;97255.59;5035947;28;20216;-73
2022/01/01 00:29:24;;;;;;;6.60;3.67;;;;;;;10.64;86.94;97255.19;5035709;28;21129;-73
2022/01/01 00:31:51;;;;;;;8.37;4.03;;;;;;;10.53;86.17;97247.53;5035225;28;20233;-74
2022/01/01 00:34:17;;;;;;;12.87;4.73;;;;;;;10.55;85.89;97248.19;5034780;28;20800;-73
2022/01/01 00:36:44;;;;;;;15.10;6.40;;;;;;;10.39;86.78;97253.34;5035115;28;20213;-73
2022/01/01 00:39:10;;;;;;;10.53;4.60;;;;;;;10.50;86.81;97258.34;5035249;28;20324;-72
2022/01/01 00:41:37;;;;;;;9.73;4.17;;;;;;;10.53;86.31;97252.81;5034498;28;20208;-72
2022/01/01 00:44:04;;;;;;;13.63;5.63;;;;;;;10.55;86.15;97245.56;5036007;28;20220;-72
2022/01/01 00:46:32;;;;;;;15.20;5.03;;;;;;;10.68;86.49;97256.53;5036972;28;20228;-72
2022/01/01 00:48:58;;;;;;;11.20;4.90;;;;;;;10.40;86.48;97265.53;5036220;28;20208;-73
2022/01/01 00:51:25;;;;;;;13.33;5.17;;;;;;;10.49;85.95;97267.25;5035878;28;20209;-73
2022/01/01 00:53:51;;;;;;;11.83;5.73;;;;;;;10.38;86.21;97268.28;5034788;28;20217;-73
2022/01/01 00:56:18;;;;;;;13.40;5.50;;;;;;;10.54;85.84;97263.19;5035619;28;20208;-72
2022/01/01 00:58:44;;;;;;;8.67;3.60;;;;;;;10.29;86.68;97260.47;5036228;28;20213;-73
2022/01/01 01:01:11;;;;;;;13.27;5.00;;;;;;;10.47;85.89;97264.75;5036178;28;20197;-73
2022/01/01 01:03:39;;;;;;;9.30;4.27;;;;;;;10.58;86.21;97267.16;5035347;28;20201;-73
2022/01/01 01:06:06;;;;;;;10.50;4.20;;;;;;;10.35;86.42;97271.25;5036195;28;20208;-73
2022/01/01 01:08:32;;;;;;;11.80;4.83;;;;;;;10.09;87.26;97279.22;5032749;28;20566;-72
2022/01/01 01:10:59;;;;;;;18.87;5.10;;;;;;;10.25;86.74;97279.38;5033503;28;20931;-73
2022/01/01 01:13:31;;;;;;;10.57;4.60;;;;;;;10.41;86.70;97275.91;5033680;28;20211;-74
2022/01/01 01:15:57;;;;;;;10.17;4.77;;;;;;;10.35;86.60;97289.69;5035299;28;20205;-73
2022/01/01 01:18:24;;;;;;;11.23;4.17;;;;;;;10.36;86.14;97279.97;5035106;28;20216;-73
2022/01/01 01:20:52;;;;;;;8.97;3.97;;;;;;;10.69;86.26;97288.03;5034546;28;20228;-72
2022/01/01 01:23:18;;;;;;;4.87;3.67;;;;;;;10.45;85.71;97273.78;5035122;28;20197;-73
2022/01/01 01:25:45;;;;;;;6.50;3.27;;;;;;;10.32;86.11;97276.81;5035185;28;20713;-73
2022/01/01 01:28:14;;;;;;;8.10;3.30;;;;;;;10.58;86.22;97274.25;5035016;28;20208;-72
2022/01/01 01:30:41;;;;;;;7.93;3.93;;;;;;;10.54;85.78;97291.34;5035016;28;20285;-72
2022/01/01 01:33:10;;;;;;;11.97;4.33;;;;;;;10.66;85.73;97274.31;5034266;28;21043;-72
2022/01/01 01:35:37;;;;;;;12.13;4.00;;;;;;;10.43;85.69;97286.31;5034700;28;20271;-73
2022/01/01 01:38:04;;;;;;;10.40;4.63;;;;;;;10.67;85.81;97286.53;5034971;28;20210;-73
2022/01/01 01:40:31;;;;;;;9.30;3.27;;;;;;;10.46;85.61;97283.34;5035583;28;20232;-72
2022/01/01 01:42:59;;;;;;;9.73;3.37;;;;;;;10.47;85.43;97287.66;5035012;28;20209;-73
2022/01/01 01:45:28;;;;;;;12.23;4.27;;;;;;;10.45;85.47;97286.97;5036386;28;20221;-72
2022/01/01 01:47:54;;;;;;;7.03;3.43;;;;;;;10.53;85.21;97289.69;5035973;28;20209;-73
2022/01/01 01:50:21;;;;;;;11.53;4.57;;;;;;;10.61;85.10;97280.03;5036085;28;20209;-72
2022/01/01 01:52:51;;;;;;;8.37;3.37;;;;;;;10.84;85.03;97288.31;5035673;28;20201;-72
2022/01/01 01:55:19;;;;;;;6.83;3.80;;;;;;;10.80;85.25;97281.69;5037725;28;20217;-73
2022/01/01 01:57:46;;;;;;;7.87;3.90;;;;;;;10.60;85.65;97282.81;5036832;28;20244;-73
2022/01/01 02:00:31;;;;;;;7.87;3.80;;;;;;;10.76;85.61;97280.34;5036368;28;20268;-72
2022/01/01 02:02:57;;;;;;;12.67;4.57;;;;;;;10.65;84.85;97280.56;5035351;28;20216;-71
2022/01/01 02:05:24;;;;;;;7.90;3.20;;;;;;;10.45;85.68;97279.91;5035618;28;20232;-72
2022/01/01 02:07:52;;;;;;;10.90;4.77;;;;;;;10.52;85.43;97278.31;5034815;28;20229;-72
2022/01/01 02:10:21;;;;;;;8.73;3.30;;;;;;;10.46;86.44;97270.19;5035408;28;20208;-72
2022/01/01 02:12:52;;;;;;;9.27;3.40;;;;;;;10.30;85.87;97263.94;5034702;28;20282;-71
2022/01/01 02:15:38;;;;;;;9.03;4.00;;;;;;;10.76;85.15;97275.88;5035192;28;20225;-71
2022/01/01 02:18:05;;;;;;;8.93;3.57;;;;;;;10.14;86.15;97276.97;5035777;28;20198;-71
2022/01/01 02:20:32;;;;;;;7.13;2.73;;;;;;;10.53;85.76;97269.44;5036028;28;20225;-71
2022/01/01 02:23:01;;;;;;;7.40;3.10;;;;;;;10.12;85.64;97269.22;5039281;28;20212;-72
2022/01/01 02:25:29;;;;;;;10.03;3.30;;;;;;;10.36;86.08;97277.34;5039828;28;20221;-71
2022/01/01 02:27:55;;;;;;;8.57;4.33;;;;;;;10.29;85.32;97271.03;5039037;28;20223;-71
2022/01/01 02:30:23;;;;;;;9.83;4.20;;;;;;;10.29;85.59;97276.28;5039003;28;20201;-71
2022/01/01 02:32:49;;;;;;;7.87;4.13;;;;;;;10.19;86.30;97278.16;5038932;28;20212;-72
2022/01/01 02:35:18;;;;;;;12.13;4.97;;;;;;;10.36;85.83;97277.34;5039313;28;20216;-72
2022/01/01 02:37:46;;;;;;;8.83;3.50;;;;;;;10.31;86.11;97284.88;5038851;28;20247;-72
2022/01/01 02:40:15;;;;;;;9.30;4.07;;;;;;;10.32;85.47;97280.44;5038806;28;20212;-71
2022/01/01 02:42:43;;;;;;;5.60;3.03;;;;;;;10.06;85.75;97284.78;5038693;28;20206;-71
2022/01/01 02:45:11;;;;;;;8.10;2.87;;;;;;;10.23;85.25;97286.59;5039231;28;20891;-71
2022/01/01 02:47:38;;;;;;;8.63;3.50;;;;;;;10.00;86.04;97275.66;5039038;28;20219;-72
2022/01/01 02:50:06;;;;;;;7.13;3.40;;;;;;;10.05;85.63;97289.19;5039009;28;20205;-72
2022/01/01 02:52:33;;;;;;;9.03;2.93;;;;;;;9.90;86.22;97303.84;5038931;28;20208;-72
2022/01/01 02:55:01;;;;;;;5.63;3.33;;;;;;;10.08;85.85;97295.97;5038365;28;20224;-71
2022/01/01 02:57:28;;;;;;;6.20;3.00;;;;;;;9.87;85.45;97301.47;5038375;28;20214;-71
2022/01/01 02:59:54;;;;;;;5.63;3.03;;;;;;;9.66;86.65;97307.13;5038810;28;20225;-71
2022/01/01 03:02:21;;;;;;;5.10;2.40;;;;;;;9.78;86.31;97314.69;5038990;28;20205;-71
2022/01/01 03:04:47;;;;;;;4.97;2.13;;;;;;;9.91;85.47;97305.47;5038745;28;20331;-71
2022/01/01 03:07:14;;;;;;;7.43;3.10;;;;;;;9.68;85.48;97306.81;5039560;28;20201;-72
2022/01/01 03:09:40;;;;;;;8.57;3.27;;;;;;;9.76;85.35;97314.84;5039166;28;20198;-71
2022/01/01 03:12:11;;;;;;;10.13;3.10;;;;;;;10.09;85.04;97314.25;5039136;28;20692;-72
2022/01/01 03:14:38;;;;;;;6.90;3.27;;;;;;;9.80;84.84;97316.22;5039124;28;20228;-72
2022/01/01 03:17:05;;;;;;;4.57;2.57;;;;;;;9.62;86.20;97316.28;5039222;28;20209;-72
2022/01/01 03:19:32;;;;;;;28.83;3.90;;;;;;;9.60;87.00;97312.97;5035322;28;20208;-71
2022/01/01 03:21:58;;;;;;;9.70;3.03;;;;;;;9.72;86.95;97308.22;5038606;28;20241;-72
2022/01/01 03:24:25;;;;;;;6.93;2.93;;;;;;;9.64;86.67;97314.34;5038378;28;20253;-71
2022/01/01 03:26:52;;;;;;;6.40;2.93;;;;;;;9.86;84.82;97310.38;5038901;28;20205;-72
2022/01/01 03:29:20;;;;;;;9.90;2.80;;;;;;;10.20;84.84;97306.16;5038667;28;20206;-71
2022/01/01 03:31:46;;;;;;;8.50;2.60;;;;;;;9.93;85.39;97318.50;5038680;28;20193;-71
2022/01/01 03:34:13;;;;;;;10.60;2.97;;;;;;;10.02;85.31;97321.09;5037383;28;20232;-71
2022/01/01 03:36:39;;;;;;;7.37;2.70;;;;;;;9.86;86.25;97314.78;5038012;28;20201;-72
2022/01/01 03:39:07;;;;;;;4.83;2.90;;;;;;;10.08;86.81;97309.16;5038968;28;20205;-71
2022/01/01 03:41:33;;;;;;;5.10;2.53;;;;;;;9.69;86.75;97316.38;5038710;28;20225;-73
2022/01/01 03:44:00;;;;;;;6.27;3.17;;;;;;;9.88;85.87;97316.31;5036838;28;20217;-74
2022/01/01 03:46:27;;;;;;;4.03;2.10;;;;;;;9.95;87.22;97325.28;5038018;28;20201;-71
2022/01/01 03:48:54;;;;;;;4.83;2.60;;;;;;;9.60;86.80;97319.06;5037815;28;20197;-71
2022/01/01 03:51:20;;;;;;;7.33;3.10;;;;;;;9.73;86.98;97319.56;5037660;28;20200;-71
2022/01/01 03:53:47;;;;;;;7.77;3.63;;;;;;;9.84;86.41;97307.03;5036751;28;20232;-71
2022/01/01 03:56:14;;;;;;;5.27;2.70;;;;;;;9.83;86.52;97305.38;5037470;28;20205;-72
2022/01/01 03:58:41;;;;;;;4.43;2.50;;;;;;;9.82;86.57;97303.72;5037795;28;20543;-72
2022/01/01 04:01:07;;;;;;;6.77;3.70;;;;;;;9.63;86.24;97307.44;5037506;28;20562;-72
2022/01/01 04:03:35;;;;;;;5.77;2.93;;;;;;;9.59;87.97;97313.97;5036625;28;20197;-71
2022/01/01 04:06:02;;;;;;;6.33;2.87;;;;;;;9.66;87.51;97307.13;5037568;28;20204;-71
2022/01/01 04:08:29;;;;;;;5.50;2.70;;;;;;;9.61;86.25;97293.56;5037097;28;21079;-72
2022/01/01 04:10:56;;;;;;;5.43;2.47;;;;;;;9.47;87.21;97292.28;5037836;28;20233;-71
2022/01/01 04:13:22;;;;;;;8.10;3.73;;;;;;;9.16;87.96;97306.63;5037569;28;20202;-71
2022/01/01 04:15:49;;;;;;;7.10;3.20;;;;;;;9.25;87.97;97312.81;5037480;28;20728;-71
2022/01/01 04:18:25;;;;;;;9.53;2.80;;;;;;;9.26;88.05;97314.50;5036731;28;20415;-71
2022/01/01 04:20:53;;;;;;;6.53;2.53;;;;;;;9.56;87.57;97311.59;5037187;28;20221;-71
2022/01/01 04:23:20;;;;;;;6.53;3.63;;;;;;;9.49;86.16;97310.53;5036155;28;20201;-72
2022/01/01 04:25:47;;;;;;;4.90;3.10;;;;;;;9.51;85.89;97313.84;5036287;28;20705;-71
2022/01/01 04:28:14;;;;;;;5.03;2.33;;;;;;;9.62;85.49;97311.03;5036409;28;20212;-71
2022/01/01 04:30:41;;;;;;;5.67;2.90;;;;;;;9.20;86.39;97326.41;5035934;28;20201;-71
2022/01/01 04:33:07;;;;;;;8.40;3.50;;;;;;;9.16;85.48;97324.19;5035181;28;20653;-71
2022/01/01 04:35:34;;;;;;;4.63;2.50;;;;;;;9.27;85.18;97322.22;5036378;28;20666;-72
2022/01/01 04:38:01;;;;;;;8.03;2.77;;;;;;;9.50;84.32;97313.00;5036143;28;20205;-70
2022/01/01 04:40:28;;;;;;;10.93;2.73;;;;;;;9.19;85.59;97323.94;5036008;28;20229;-71
2022/01/01 04:42:54;;;;;;;6.00;2.43;;;;;;;9.38;84.93;97326.50;5034754;28;20208;-72
2022/01/01 04:45:21;;;;;;;6.23;2.30;;;;;;;9.29;84.94;97320.31;5036342;28;20223;-72
2022/01/01 04:47:47;;;;;;;3.80;2.23;;;;;;;9.11;85.93;97323.78;5036015;28;20205;-71
2022/01/01 04:50:15;;;;;;;6.70;3.00;;;;;;;8.98;87.46;97331.16;5036037;28;20208;-71
2022/01/01 04:52:43;;;;;;;5.10;1.87;;;;;;;9.24;86.46;97325.16;5035734;28;20197;-71
2022/01/01 04:55:11;;;;;;;5.23;2.57;;;;;;;9.72;85.53;97324.00;5036070;28;20617;-71
2022/01/01 04:57:37;;;;;;;6.20;2.50;;;;;;;9.46;85.86;97322.19;5035301;28;20201;-71
2022/01/01 05:00:05;;;;;;;3.33;2.23;;;;;;;9.41;86.31;97327.03;5036143;28;21072;-71
2022/01/01 05:02:32;;;;;;;11.03;3.50;;;;;;;9.30;85.59;97321.13;5035598;28;20220;-71
2022/01/01 05:04:58;;;;;;;4.57;2.63;;;;;;;9.33;85.98;97329.56;5036151;28;20240;-72
2022/01/01 05:07:24;;;;;;;11.77;3.53;;;;;;;9.54;86.06;97318.84;5036078;28;20247;-71
2022/01/01 05:09:51;;;;;;;5.73;2.70;;;;;;;9.28;86.83;97323.09;5036018;28;20205;-72
2022/01/01 05:12:19;;;;;;;6.73;2.90;;;;;;;9.54;87.99;97318.84;5034846;28;20201;-71
2022/01/01 05:14:45;;;;;;;4.87;2.47;;;;;;;9.36;88.06;97325.81;5035780;28;20225;-71
2022/01/01 05:17:13;;;;;;;5.13;2.57;;;;;;;9.43;88.20;97332.16;5035918;28;20201;-72
2022/01/01 05:19:39;;;;;;;6.17;2.60;;;;;;;9.32;87.86;97327.06;5035796;28;20205;-71
2022/01/01 05:22:06;;;;;;;5.60;2.73;;;;;;;9.55;87.20;97336.28;5035354;28;20772;-72
2022/01/01 05:24:32;;;;;;;8.20;3.60;;;;;;;9.74;86.47;97329.94;5035186;28;20225;-71
2022/01/01 05:26:59;;;;;;;9.33;3.47;;;;;;;9.78;86.45;97331.31;5035408;28;20211;-71
2022/01/01 05:29:27;;;;;;;7.07;2.90;;;;;;;10.05;86.93;97335.78;5035637;28;20200;-71
2022/01/01 05:31:53;;;;;;;10.37;2.43;;;;;;;9.65;87.08;97337.06;5035760;28;20197;-71
2022/01/01 05:34:20;;;;;;;4.33;2.53;;;;;;;9.40;89.12;97332.44;5034566;28;20225;-71
2022/01/01 05:36:46;;;;;;;6.00;2.90;;;;;;;9.46;88.07;97330.06;5035440;28;20197;-71
2022/01/01 05:39:12;;;;;;;6.17;3.37;;;;;;;9.60;88.07;97326.13;5035634;28;20216;-71
2022/01/01 05:41:39;;;;;;;6.60;2.47;;;;;;;9.57;87.51;97334.31;5035257;28;20221;-71
2022/01/01 05:44:06;;;;;;;8.27;3.03;;;;;;;9.62;87.58;97332.09;5034365;28;20217;-71
2022/01/01 05:46:34;;;;;;;8.10;3.27;;;;;;;9.55;88.46;97328.38;5035159;28;20201;-71
2022/01/01 05:49:01;;;;;;;5.63;2.70;;;;;;;9.19;88.56;97321.31;5035217;28;20205;-71
2022/01/01 05:51:27;;;;;;;5.27;2.73;;;;;;;9.48;87.02;97322.03;5034426;28;20201;-71
2022/01/01 05:53:54;;;;;;;4.20;2.27;;;;;;;9.27;87.12;97324.88;5033886;28;20221;-71
2022/01/01 05:56:20;;;;;;;2.13;1.53;;;;;;;9.11;87.34;97321.16;5033807;28;20197;-71
2022/01/01 05:58:47;;;;;;;5.03;2.37;;;;;;;9.16;87.25;97314.53;5035193;28;20215;-72
2022/01/01 06:01:13;;;;;;;8.83;3.27;;;;;;;9.03;86.13;97312.34;5034967;28;20214;-71
2022/01/01 06:03:41;;;;;;;7.80;3.13;;;;;;;9.15;87.48;97312.00;5034371;28;20201;-72
2022/01/01 06:06:08;;;;;;;6.03;3.27;;;;;;;8.80;87.53;97311.81;5034831;28;20208;-71
2022/01/01 06:08:34;;;;;;;6.97;3.23;;;;;;;8.63;88.33;97315.16;5034763;28;20193;-72
2022/01/01 06:11:01;;;;;;;7.43;3.07;;;;;;;8.73;87.67;97310.72;5035415;28;20201;-71
2022/01/01 06:13:28;;;;;;;4.77;2.53;;;;;;;8.76;87.27;97314.88;5034594;28;20223;-71
2022/01/01 06:15:54;;;;;;;9.13;2.50;;;;;;;8.66;86.51;97316.69;5034955;28;20258;-71
2022/01/01 06:18:21;;;;;;;8.27;4.43;;;;;;;8.67;86.00;97308.66;5034591;28;20212;-71
2022/01/01 06:20:49;;;;;;;5.53;2.97;;;;;;;8.93;85.85;97309.72;5035320;28;20217;-70
2022/01/01 06:23:15;;;;;;;5.60;2.83;;;;;;;8.65;85.62;97302.69;5034115;28;20197;-72
2022/01/01 06:25:42;;;;;;;5.83;2.37;;;;;;;8.55;85.79;97299.25;5034907;28;20221;-71
2022/01/01 06:28:09;;;;;;;5.27;2.30;;;;;;;8.52;87.29;97302.16;5035038;28;20216;-71
2022/01/01 06:30:35;;;;;;;6.33;2.87;;;;;;;8.46;86.77;97301.88;5035087;28;20205;-71
2022/01/01 06:33:03;;;;;;;5.50;2.63;;;;;;;8.66;85.82;97299.09;5034175;28;20204;-73
2022/01/01 06:35:29;;;;;;;4.53;2.53;;;;;;;8.34;86.81;97297.75;5034621;28;20232;-74
2022/01/01 06:37:57;;;;;;;5.23;2.23;;;;;;;8.72;87.09;97293.31;5034520;28;20205;-71
2022/01/01 06:40:23;;;;;;;5.57;2.50;;;;;;;8.52;87.07;97296.91;5034400;28;20209;-72
2022/01/01 06:42:50;;;;;;;6.17;3.17;;;;;;;8.54;88.42;97296.75;5034355;28;20228;-71
2022/01/01 06:45:16;;;;;;;4.43;3.10;;;;;;;8.41;88.25;97308.53;5034664;28;20220;-70
2022/01/01 06:47:43;;;;;;;5.90;2.30;;;;;;;7.73;92.86;97305.91;5034336;28;20221;-71
2022/01/01 06:50:10;;;;;;;4.60;2.63;;;;;;;8.01;92.38;97294.63;5034929;28;20209;-73
2022/01/01 06:52:42;;;;;;;4.47;2.23;;;;;;;8.08;88.68;97303.63;5034321;28;20198;-73
2022/01/01 06:55:11;;;;;;;7.67;3.10;;;;;;;7.90;90.61;97315.75;5034451;28;20229;-74
2022/01/01 06:57:38;;;;;;;5.77;3.03;;;;;;;7.84;88.42;97316.31;5034215;28;20228;-75
2022/01/01 07:00:05;;;;;;;1.77;1.67;;;;;;;7.82;86.65;97325.25;5034097;28;20788;-71
2022/01/01 07:02:32;;;;;;;5.37;3.03;;;;;;;7.66;86.46;97336.25;5033556;28;20224;-71
2022/01/01 07:04:58;;;;;;;7.40;2.67;;;;;;;7.60;86.62;97341.19;5034649;28;20226;-74
2022/01/01 07:07:25;;;;;;;6.87;2.43;;;;;;;7.44;87.85;97341.66;5037250;28;20196;-73
2022/01/01 07:09:51;;;;;;;7.43;2.47;;;;;;;7.35;86.57;97344.25;5037799;28;20205;-73
2022/01/01 07:12:19;;;;;;;3.87;2.57;;;;;;;7.61;86.91;97348.09;5037896;28;20201;-74
2022/01/01 07:14:46;;;;;;;5.07;2.67;;;;;;;7.52;85.34;97359.38;5038392;28;20229;-72
2022/01/01 07:17:12;;;;;;;6.20;2.63;;;;;;;7.52;85.33;97356.75;5037526;28;20198;-73
2022/01/01 07:19:38;;;;;;;6.03;2.57;;;;;;;7.43;85.42;97353.16;5037822;28;20205;-73
2022/01/01 07:22:05;;;;;;;3.13;2.20;;;;;;;7.48;85.46;97350.94;5038483;28;20221;-74
2022/01/01 07:24:31;;;;;;;13.20;3.53;;;;;;;7.35;85.94;97354.75;5037515;28;20224;-75
2022/01/01 07:26:58;;;;;;;5.13;3.20;;;;;;;7.14;86.94;97364.44;5037573;28;20209;-73
2022/01/01 07:29:26;;;;;;;5.80;2.53;;;;;;;7.63;86.15;97368.00;5037749;28;20742;-73
2022/01/01 07:31:53;;;;;;;6.70;3.07;;;;;;;7.37;85.18;97356.28;5035593;28;20201;-73
2022/01/01 07:34:20;;;;;;;5.03;2.67;;;;;;;7.20;85.69;97358.66;5036242;28;20221;-73
2022/01/01 07:36:46;;;;;;;8.13;3.00;;;;;;;7.07;86.95;97360.66;5036671;28;20205;-73
2022/01/01 07:39:13;;;;;;;5.90;2.73;;;;;;;7.28;86.60;97361.50;5036216;28;20224;-71
2022/01/01 07:41:40;;;;;;;6.13;2.57;;;;;;;7.32;85.48;97361.09;5036233;28;20224;-73
2022/01/01 07:44:07;;;;;;;5.80;2.97;;;;;;;7.50;84.40;97372.63;5035699;28;20217;-73
2022/01/01 07:46:35;;;;;;;5.13;2.40;;;;;;;7.70;85.36;97357.78;5036046;28;20204;-74
2022/01/01 07:49:01;;;;;;;12.73;4.10;;;;;;;7.45;84.03;97356.44;5036165;28;20197;-75
2022/01/01 07:51:28;;;;;;;6.43;2.90;;;;;;;7.46;84.44;97359.94;5036957;28;20570;-73
2022/01/01 07:53:54;;;;;;;5.77;2.10;;;;;;;7.63;83.82;97367.16;5034952;28;20229;-73
2022/01/01 07:56:21;;;;;;;5.33;2.27;;;;;;;7.29;85.29;97366.59;5036627;28;20227;-72
2022/01/01 07:58:47;;;;;;;5.13;1.80;;;;;;;7.34;83.37;97368.81;5037156;28;20218;-73
2022/01/01 08:01:14;;;;;;;5.43;3.30;;;;;;;7.25;86.43;97374.84;5035905;28;20693;-73
2022/01/01 08:03:41;;;;;;;9.20;3.83;;;;;;;7.78;86.83;97374.53;5035806;28;20208;-73
2022/01/01 08:06:08;;;;;;;12.93;4.10;;;;;;;7.70;85.96;97374.38;5035944;28;20395;-72
2022/01/01 08:08:34;;;;;;;6.43;3.27;;;;;;;7.73;85.99;97374.13;5036927;28;20205;-72
2022/01/01 08:11:01;;;;;;;8.60;3.60;;;;;;;8.11;84.64;97361.94;5036691;28;20201;-71
2022/01/01 08:13:27;;;;;;;10.30;3.77;;;;;;;8.10;84.93;97351.56;5032610;28;20201;-72
2022/01/01 08:15:55;;;;;;;15.27;4.07;;;;;;;8.30;84.27;97342.78;5036496;28;20729;-71
2022/01/01 08:18:22;;;;;;;5.97;3.00;;;;;;;8.16;87.17;97346.66;5035895;28;20749;-72
2022/01/01 08:20:50;;;;;;;7.27;2.90;;;;;;;8.61;86.05;97340.72;5036199;28;20212;-71
2022/01/01 08:23:16;;;;;;;8.50;3.70;;;;;;;8.46;86.53;97332.56;5035845;28;21171;-73
2022/01/01 08:25:43;;;;;;;6.93;2.97;;;;;;;8.40;88.26;97341.00;5036464;28;20252;-71
2022/01/01 08:28:10;;;;;;;9.47;4.30;;;;;;;8.59;87.48;97337.44;5035447;28;20232;-71
2022/01/01 08:30:37;;;;;;;10.43;3.37;;;;;;;8.84;88.17;97334.22;5036266;28;20752;-72
2022/01/01 08:33:04;;;;;;;6.20;2.50;;;;;;;8.75;88.19;97324.53;5035386;28;21017;-72
2022/01/01 08:35:31;;;;;;;9.50;3.33;;;;;;;9.07;88.27;97318.97;5035446;28;20225;-72
2022/01/01 08:38:00;;;;;;;5.83;3.17;;;;;;;9.29;89.11;97328.19;5035685;28;20209;-72
2022/01/01 08:40:28;;;;;;;16.23;3.97;;;;;;;9.20;88.75;97330.81;5036155;28;20237;-71
2022/01/01 08:42:55;;;;;;;12.43;4.23;;;;;;;9.01;89.53;97341.38;5034210;28;20224;-73
2022/01/01 08:45:22;;;;;;;26.13;8.43;;;;;;;9.47;89.54;97333.53;5035318;28;20675;-72
2022/01/01 08:47:48;;;;;;;9.53;3.43;;;;;;;9.12;89.63;97346.50;5035615;28;20201;-71
2022/01/01 08:50:15;;;;;;;10.03;3.77;;;;;;;9.27;89.17;97342.47;5035604;28;20202;-72
2022/01/01 08:52:42;;;;;;;24.70;8.30;;;;;;;9.29;89.22;97351.88;5035212;28;20197;-72
2022/01/01 08:55:10;;;;;;;27.40;10.10;;;;;;;9.71;88.71;97346.03;5035595;28;20248;-72
2022/01/01 08:57:37;;;;;;;11.93;5.17;;;;;;;9.63;88.59;97350.34;5035698;28;20197;-71
2022/01/01 09:00:06;;;;;;;13.27;4.37;;;;;;;9.77;89.17;97339.34;5035756;28;20210;-71
2022/01/01 09:02:33;;;;;;;8.30;4.27;;;;;;;10.27;92.30;97320.38;5035028;28;20217;-72
2022/01/01 09:04:59;;;;;;;12.57;4.13;;;;;;;10.35;87.15;97320.50;5034882;28;20226;-72
2022/01/01 09:07:28;;;;;;;6.20;3.50;;;;;;;10.47;85.55;97314.00;5035468;28;20201;-72
2022/01/01 09:09:55;;;;;;;9.40;4.40;;;;;;;10.22;85.39;97314.75;5035558;28;20300;-72
2022/01/01 09:12:22;;;;;;;10.53;4.27;;;;;;;10.38;85.74;97320.19;5034865;28;21161;-72
2022/01/01 09:14:49;;;;;;;10.03;4.00;;;;;;;10.19;85.21;97322.94;5035226;28;20538;-73
2022/01/01 09:17:15;;;;;;;8.60;4.17;;;;;;;10.30;84.96;97324.53;5034704;28;20592;-71
2022/01/01 09:19:42;;;;;;;8.97;4.13;;;;;;;10.32;85.45;97331.31;5035844;28;20212;-73
2022/01/01 09:22:08;;;;;;;5.77;3.20;;;;;;;10.18;85.84;97342.34;5035211;28;20252;-72
2022/01/01 09:24:35;;;;;;;6.47;2.87;;;;;;;9.96;87.03;97347.19;5035354;28;20678;-72
2022/01/01 09:27:02;;;;;;;6.47;3.33;;;;;;;10.18;85.66;97350.25;5033436;28;20201;-73
2022/01/01 09:29:30;;;;;;;9.13;3.77;;;;;;;10.37;86.13;97348.34;5036995;28;20208;-71
2022/01/01 09:31:56;;;;;;;9.30;4.50;;;;;;;10.70;84.47;97352.13;5033611;28;20213;-71
2022/01/01 09:34:23;;;;;;;16.53;5.30;;;;;;;10.63;84.51;97349.25;5032859;28;20232;-72
2022/01/01 09:36:51;;;;;;;7.40;3.33;;;;;;;10.73;84.03;97352.66;5030991;28;20208;-72
2022/01/01 09:39:18;;;;;;;8.30;4.10;;;;;;;10.58;84.47;97346.25;5034015;28;20208;-72
2022/01/01 09:41:45;;;;;;;10.23;4.83;;;;;;;10.74;83.82;97356.09;5033593;28;20197;-71
2022/01/01 09:44:13;;;;;;;7.70;3.63;;;;;;;11.07;83.21;97354.44;5032332;28;20228;-72
2022/01/01 09:46:44;;;;;;;11.63;4.80;;;;;;;11.15;82.84;97341.31;5034063;28;20208;-73
2022/01/01 09:49:11;;;;;;;13.30;4.30;;;;;;;11.05;81.74;97350.28;5032945;28;20327;-72
2022/01/01 09:51:38;;;;;;;11.43;3.83;;;;;;;10.89;82.38;97354.59;5034849;28;21092;-73
2022/01/01 09:54:04;;;;;;;7.77;3.07;;;;;;;11.09;81.05;97352.44;5034777;28;20221;-71
2022/01/01 09:56:31;;;;;;;10.83;5.17;;;;;;;11.15;80.83;97357.13;5034210;28;20583;-72
2022/01/01 09:58:57;;;;;;;16.83;6.87;;;;;;;11.25;80.39;97354.38;5034427;28;20213;-71
2022/01/01 10:01:24;;;;;;;24.60;9.57;;;;;;;11.72;79.59;97357.38;5032718;28;20207;-72
2022/01/01 10:03:53;;;;;;;11.50;4.87;;;;;;;11.73;78.66;97352.91;5032866;28;20221;-71
2022/01/01 10:06:21;;;;;;;8.47;4.53;;;;;;;11.80;78.72;97343.38;5034141;28;20205;-72
2022/01/01 10:08:49;;;;;;;9.40;4.87;;;;;;;11.54;78.98;97353.13;5034745;28;20209;-72
2022/01/01 10:11:17;;;;;;;9.23;4.07;;;;;;;11.42;79.69;97353.50;5032884;28;20205;-71
2022/01/01 10:13:44;;;;;;;10.37;4.37;;;;;;;11.43;79.09;97350.75;5033248;28;20861;-72
2022/01/01 10:16:12;;;;;;;9.20;4.27;;;;;;;11.86;78.41;97350.66;5033341;28;20708;-71
2022/01/01 10:18:41;;;;;;;7.03;3.63;;;;;;;11.55;79.05;97357.44;5034349;28;20220;-72
2022/01/01 10:21:10;;;;;;;8.97;4.27;;;;;;;11.73;79.02;97363.47;5036458;28;20216;-71
2022/01/01 10:23:39;;;;;;;11.03;3.90;;;;;;;11.78;78.81;97366.47;5034418;28;20620;-71
2022/01/01 10:29:05;;;;;;;8.43;3.47;;;;;;;11.94;78.38;97358.63;5036020;28;20708;-72
2022/01/01 10:31:33;;;;;;;6.97;4.43;;;;;;;11.71;78.83;97370.72;5035995;28;20202;-73
2022/01/01 10:33:59;;;;;;;12.73;5.77;;;;;;;11.78;78.26;97366.47;5035331;28;20225;-71
2022/01/01 10:36:30;;;;;;;14.77;6.93;;;;;;;12.34;78.47;97349.03;5036654;28;20212;-72
2022/01/01 10:39:07;;;;;;;11.37;5.53;;;;;;;12.71;76.53;97352.91;5035467;28;20239;-72
2022/01/01 10:41:44;;;;;;;10.00;4.60;;;;;;;12.46;76.68;97353.88;5036189;28;20251;-72
2022/01/01 10:44:11;;;;;;;7.17;3.83;;;;;;;11.71;78.90;97361.00;5039139;28;20231;-71
2022/01/01 10:46:38;;;;;;;14.20;4.83;;;;;;;12.25;78.61;97360.56;5040028;28;20224;-72
2022/01/01 10:49:30;;;;;;;9.30;4.07;;;;;;;12.64;75.87;97351.09;5040253;28;20225;-72
2022/01/01 10:52:12;;;;;;;11.70;4.60;;;;;;;13.19;74.81;97353.81;5040208;28;20634;-71
2022/01/01 10:54:38;;;;;;;9.97;4.63;;;;;;;12.28;77.22;97353.16;5039890;28;20217;-72
2022/01/01 10:57:08;;;;;;;8.77;4.03;;;;;;;12.86;75.68;97343.38;5039891;28;20900;-71
2022/01/01 10:59:38;;;;;;;4.07;2.93;;;;;;;12.49;75.97;97342.16;5041254;28;20197;-73
2022/01/01 11:02:07;;;;;;;11.10;5.17;;;;;;;12.50;76.68;97343.78;5037918;28;21158;-72
2022/01/01 11:04:34;;;;;;;8.33;3.73;;;;;;;12.49;75.94;97348.25;5039606;28;20225;-72
2022/01/01 11:07:02;;;;;;;10.73;4.97;;;;;;;12.97;75.61;97340.41;5039909;28;20220;-72
2022/01/01 11:09:30;;;;;;;15.33;5.67;;;;;;;12.98;74.82;97328.84;5040007;28;20931;-72
2022/01/01 11:12:02;;;;;;;12.70;3.97;;;;;;;13.14;75.47;97323.56;5040186;28;20661;-71
2022/01/01 11:14:31;;;;;;;9.50;3.83;;;;;;;13.79;75.21;97321.44;5039201;28;20663;-71
2022/01/01 11:16:58;;;;;;;11.80;4.67;;;;;;;13.40;74.66;97325.00;5034628;28;20205;-72
2022/01/01 11:19:25;;;;;;;15.53;5.33;;;;;;;13.24;73.57;97316.25;5038356;28;20202;-73
2022/01/01 11:21:52;;;;;;;13.57;5.17;;;;;;;13.46;73.53;97319.84;5040249;28;20205;-71
2022/01/01 11:24:21;;;;;;;12.93;4.73;;;;;;;13.67;73.04;97312.19;5038672;28;20225;-72
2022/01/01 11:26:50;;;;;;;9.53;4.77;;;;;;;13.59;73.46;97308.75;5039033;28;20205;-72
2022/01/01 11:29:17;;;;;;;13.37;5.73;;;;;;;12.70;75.75;97316.88;5038290;28;20212;-72
2022/01/01 11:31:46;;;;;;;12.60;5.07;;;;;;;12.98;74.36;97307.66;5039128;28;20205;-71
2022/01/01 11:34:16;;;;;;;7.93;3.80;;;;;;;13.39;74.15;97303.00;5036619;28;20228;-72
2022/01/01 11:36:42;;;;;;;10.30;4.30;;;;;;;13.27;73.19;97307.97;5037613;28;20213;-72
2022/01/01 11:39:14;;;;;;;10.17;4.03;;;;;;;13.70;73.30;97300.44;5038383;28;20212;-71
2022/01/01 11:41:44;;;;;;;9.40;3.60;;;;;;;13.70;73.18;97300.44;5039436;28;20201;-71